Time;durP1;ratioP1;P1;durP2;ratioP2;P2;SDS_P1;SDS_P2;PMS_P1;PMS_P2;Temp;Humidity;BMP_temperature;BMP_pressure;BME280_temperature;BME280_humidity;BME280_pressure;Samples;Min_cycle;Max_cycle;Signal;HPM_P1;HPM_P2
2024/01/21 00:02:22;;;;;;;;;;;;;;;-0.38;60.99;101050.22;4447507;32;33348;-86
2024/01/21 00:04:52;;;;;;;;;;;;;;;-0.57;61.34;101049.22;4457508;32;34107;-83
2024/01/21 00:07:24;;;;;;;;;;;;;;;-0.43;60.96;101047.44;4450588;32;34457;-81
2024/01/21 00:10:02;;;;;;;;;;;;;;;-0.66;61.66;101053.84;4455499;32;34729;-83
2024/01/21 00:12:30;;;;;;;;;;;;;;;-0.92;62.12;101048.22;4456648;32;33032;-84
2024/01/21 00:15:00;;;;;;;;;;;;;;;-0.54;61.21;101041.75;4458069;32;34096;-82
2024/01/21 00:17:29;;;;;;;;;;;;;;;-0.66;61.53;101043.63;4455835;32;35051;-83
2024/01/21 00:20:01;;;;;;;;;;;;;;;-1.05;62.70;101037.25;4460368;32;32602;-82
2024/01/21 00:22:32;;;;;;;;;;;;;;;-1.01;62.09;101039.19;4464058;32;33411;-83
2024/01/21 00:25:06;;;;;;;;;;;;;;;-0.98;61.99;101035.12;4454117;32;33976;-82
2024/01/21 00:27:38;;;;;;;;;;;;;;;-0.94;61.81;101036.19;4457043;32;34111;-83
2024/01/21 00:30:13;;;;;;;;;;;;;;;-0.76;60.94;101043.94;4455146;32;34726;-85
2024/01/21 00:32:42;;;;;;;;;;;;;;;-0.80;60.95;101045.44;4463117;32;33403;-83
2024/01/21 00:35:16;;;;;;;;;;;;;;;-0.76;60.61;101049.03;4451243;32;34755;-83
2024/01/21 00:37:45;;;;;;;;;;;;;;;-0.94;61.19;101056.56;4452409;32;36403;-83
2024/01/21 00:40:16;;;;;;;;;;;;;;;-0.84;61.08;101056.28;4461358;32;34330;-84
2024/01/21 00:42:46;;;;;;;;;;;;;;;-0.91;60.98;101061.81;4453823;32;32443;-81
2024/01/21 00:45:16;;;;;;;;;;;;;;;-1.01;61.33;101052.81;4451200;32;33749;-84
2024/01/21 00:47:44;;;;;;;;;;;;;;;-1.17;61.79;101065.47;4461537;32;33847;-81
2024/01/21 00:50:17;;;;;;;;;;;;;;;-1.04;61.84;101064.47;4451549;32;33971;-82
2024/01/21 00:52:46;;;;;;;;;;;;;;;-0.82;60.87;101067.44;4449233;32;33498;-82
2024/01/21 00:55:20;;;;;;;;;;;;;;;-0.73;60.47;101074.69;4455780;32;34038;-82
2024/01/21 00:57:49;;;;;;;;;;;;;;;-0.98;60.75;101077.56;4454833;32;33567;-83
2024/01/21 01:00:25;;;;;;;;;;;;;;;-0.70;60.33;101069.75;4461013;32;33995;-81
2024/01/21 01:02:55;;;;;;;;;;;;;;;-0.58;59.55;101070.44;4457704;32;33020;-82
2024/01/21 01:05:24;;;;;;;;;;;;;;;-0.71;59.86;101073.09;4456658;32;34206;-83
2024/01/21 01:07:55;;;;;;;;;;;;;;;-0.87;60.12;101072.28;4453605;32;33767;-82
2024/01/21 01:10:26;;;;;;;;;;;;;;;-0.99;60.29;101071.59;4460184;32;34393;-82
2024/01/21 01:12:56;;;;;;;;;;;;;;;-0.76;59.69;101072.84;4461774;32;34315;-81
2024/01/21 01:15:25;;;;;;;;;;;;;;;-0.82;59.81;101069.06;4454070;32;33815;-82
2024/01/21 01:17:54;;;;;;;;;;;;;;;-0.88;60.04;101070.50;4456826;32;35638;-83
2024/01/21 01:20:26;;;;;;;;;;;;;;;-0.97;60.20;101071.66;4456132;32;33418;-84
2024/01/21 01:23:01;;;;;;;;;;;;;;;-0.99;60.27;101070.69;4450885;32;33019;-81
2024/01/21 01:25:31;;;;;;;;;;;;;;;-1.02;60.40;101079.03;4461009;32;33759;-81
2024/01/21 01:28:03;;;;;;;;;;;;;;;-1.20;60.93;101075.50;4454412;32;33786;-82
2024/01/21 01:30:34;;;;;;;;;;;;;;;-1.13;60.75;101075.03;4459785;32;33405;-85
2024/01/21 01:33:03;;;;;;;;;;;;;;;-1.22;60.72;101067.75;4459910;32;34224;-81
2024/01/21 01:35:34;;;;;;;;;;;;;;;-1.17;60.60;101066.34;4448800;32;33582;-84
2024/01/21 01:38:05;;;;;;;;;;;;;;;-1.11;60.35;101065.81;4452047;32;33881;-81
2024/01/21 01:40:35;;;;;;;;;;;;;;;-1.09;60.53;101066.75;4455303;32;33758;-83
2024/01/21 01:43:06;;;;;;;;;;;;;;;-1.05;60.21;101066.16;4447818;32;33872;-82
2024/01/21 01:45:35;;;;;;;;;;;;;;;-1.15;60.25;101063.87;4454022;32;34303;-83
2024/01/21 01:48:09;;;;;;;;;;;;;;;-1.29;60.66;101060.56;4465987;32;34357;-84
2024/01/21 01:50:39;;;;;;;;;;;;;;;-1.26;60.58;101058.19;4454845;32;34243;-84
2024/01/21 01:53:09;;;;;;;;;;;;;;;-1.16;60.49;101063.03;4458459;32;33484;-81
2024/01/21 01:55:39;;;;;;;;;;;;;;;-1.21;60.40;101053.34;4467449;32;34906;-82
2024/01/21 01:58:09;;;;;;;;;;;;;;;-1.26;60.88;101050.53;4461938;32;33998;-82
2024/01/21 02:00:38;;;;;;;;;;;;;;;-1.22;60.80;101056.69;4462338;32;33242;-83
2024/01/21 02:03:08;;;;;;;;;;;;;;;-1.24;60.53;101059.16;4450284;32;33371;-83
2024/01/21 02:05:40;;;;;;;;;;;;;;;-1.24;60.93;101054.06;4452388;32;33446;-82
2024/01/21 02:08:10;;;;;;;;;;;;;;;-1.31;60.90;101054.50;4460304;32;34786;-84
2024/01/21 02:10:41;;;;;;;;;;;;;;;-1.27;60.96;101053.87;4457570;32;33986;-81
2024/01/21 02:13:15;;;;;;;;;;;;;;;-1.22;60.93;101056.69;4462169;32;33635;-83
2024/01/21 02:15:44;;;;;;;;;;;;;;;-1.17;60.91;101060.37;4456477;32;34098;-84
2024/01/21 02:18:17;;;;;;;;;;;;;;;-1.35;61.25;101066.19;4456315;32;34696;-82
2024/01/21 02:20:46;;;;;;;;;;;;;;;-1.37;61.52;101065.22;4450194;32;33837;-83
2024/01/21 02:23:19;;;;;;;;;;;;;;;-1.30;61.24;101063.91;4461813;32;33620;-82
2024/01/21 02:25:47;;;;;;;;;;;;;;;-1.44;61.46;101069.88;4456333;32;33986;-82
2024/01/21 02:28:19;;;;;;;;;;;;;;;-1.60;62.25;101071.53;4459316;32;34125;-81
2024/01/21 02:30:48;;;;;;;;;;;;;;;-1.74;62.57;101058.03;4448732;32;34006;-83
2024/01/21 02:33:17;;;;;;;;;;;;;;;-1.92;63.42;101063.69;4452012;32;33567;-82
2024/01/21 02:35:46;;;;;;;;;;;;;;;-1.51;62.32;101066.09;4456920;32;34061;-81
2024/01/21 02:38:17;;;;;;;;;;;;;;;-1.51;62.03;101063.56;4449455;32;34694;-83
2024/01/21 02:40:49;;;;;;;;;;;;;;;-1.36;61.25;101072.06;4460224;32;34807;-81
2024/01/21 02:43:18;;;;;;;;;;;;;;;-1.44;61.50;101070.75;4449885;32;33850;-82
2024/01/21 02:45:49;;;;;;;;;;;;;;;-1.25;61.12;101071.81;4459489;32;34300;-82
2024/01/21 02:48:18;;;;;;;;;;;;;;;-1.30;61.05;101064.78;4466663;32;33191;-83
2024/01/21 02:50:54;;;;;;;;;;;;;;;-1.11;60.62;101076.88;4451989;32;33232;-84
2024/01/21 02:53:32;;;;;;;;;;;;;;;-1.17;60.76;101088.37;4433891;32;32539;-83
2024/01/21 02:56:00;;;;;;;;;;;;;;;-1.18;60.71;101084.97;4442503;32;34397;-83
2024/01/21 02:58:34;;;;;;;;;;;;;;;-1.05;60.28;101080.56;4446222;32;34017;-82
2024/01/21 03:01:03;;;;;;;;;;;;;;;-1.21;60.51;101091.53;4441471;32;34204;-81
2024/01/21 03:03:35;;;;;;;;;;;;;;;-1.19;60.38;101097.59;4432506;32;32935;-82
2024/01/21 03:06:07;;;;;;;;;;;;;;;-1.22;60.57;101099.97;4432030;32;34515;-82
2024/01/21 03:08:38;;;;;;;;;;;;;;;-1.36;60.86;101097.50;4436569;32;34584;-81
2024/01/21 03:11:12;;;;;;;;;;;;;;;-1.22;60.70;101105.06;4441076;32;33129;-83
2024/01/21 03:13:40;;;;;;;;;;;;;;;-1.34;61.02;101103.56;4447380;32;33737;-82
2024/01/21 03:16:09;;;;;;;;;;;;;;;-1.31;60.92;101108.84;4444334;32;34024;-83
2024/01/21 03:18:39;;;;;;;;;;;;;;;-1.42;61.23;101107.38;4445748;32;34140;-83
2024/01/21 03:21:09;;;;;;;;;;;;;;;-1.33;61.15;101107.91;4451036;32;34445;-81
2024/01/21 03:23:44;;;;;;;;;;;;;;;-1.36;61.16;101106.81;4443733;32;32883;-82
2024/01/21 03:26:13;;;;;;;;;;;;;;;-1.37;61.11;101107.63;4432357;32;33077;-83
2024/01/21 03:28:42;;;;;;;;;;;;;;;-1.41;61.06;101113.31;4442284;32;34749;-82
2024/01/21 03:31:10;;;;;;;;;;;;;;;-1.40;61.09;101105.78;4451529;32;33893;-82
2024/01/21 03:33:46;;;;;;;;;;;;;;;-1.46;60.84;101107.09;4444427;32;34232;-82
2024/01/21 03:36:16;;;;;;;;;;;;;;;-1.66;61.98;101113.56;4431655;32;33464;-81
2024/01/21 03:38:50;;;;;;;;;;;;;;;-1.57;61.40;101104.81;4430355;32;33404;-82
2024/01/21 03:41:19;;;;;;;;;;;;;;;-1.41;60.94;101104.00;4435483;32;34601;-83
2024/01/21 03:43:48;;;;;;;;;;;;;;;-1.19;60.65;101105.25;4440095;32;32974;-82
2024/01/21 03:46:18;;;;;;;;;;;;;;;-1.23;60.42;101108.41;4446011;32;33638;-82
2024/01/21 03:48:49;;;;;;;;;;;;;;;-1.14;60.25;101111.47;4433419;32;33320;-83
2024/01/21 03:51:19;;;;;;;;;;;;;;;-1.27;60.57;101109.03;4432796;32;34855;-82
2024/01/21 03:53:50;;;;;;;;;;;;;;;-1.26;60.57;101126.06;4453323;32;33152;-82
2024/01/21 03:56:48;;;;;;;;;;;;;;;-1.53;61.23;101127.06;4460454;32;33274;-81
2024/01/21 03:59:17;;;;;;;;;;;;;;;-1.17;60.65;101126.59;4461951;32;33967;-83
2024/01/21 04:01:49;;;;;;;;;;;;;;;-0.88;59.40;101129.09;4452109;32;34510;-82
2024/01/21 04:04:18;;;;;;;;;;;;;;;-0.94;59.22;101128.78;4460913;32;33007;-82
2024/01/21 04:06:50;;;;;;;;;;;;;;;-1.14;60.06;101126.75;4458251;32;33346;-84
2024/01/21 04:09:23;;;;;;;;;;;;;;;-1.19;59.89;101129.03;4466413;32;34068;-82
2024/01/21 04:11:55;;;;;;;;;;;;;;;-1.39;60.39;101135.53;4455736;32;33992;-81
2024/01/21 04:14:33;;;;;;;;;;;;;;;-1.45;60.92;101131.75;4468218;32;32625;-80
2024/01/21 04:17:02;;;;;;;;;;;;;;;-1.29;60.38;101134.41;4452427;32;33884;-84
2024/01/21 04:19:32;;;;;;;;;;;;;;;-1.23;60.02;101136.41;4462426;32;34511;-82
2024/01/21 04:22:01;;;;;;;;;;;;;;;-1.37;60.38;101128.00;4467780;32;33603;-82
2024/01/21 04:24:34;;;;;;;;;;;;;;;-1.37;60.41;101126.31;4459465;32;34117;-82
2024/01/21 04:27:03;;;;;;;;;;;;;;;-1.36;60.10;101129.75;4454574;32;33670;-81
2024/01/21 04:29:33;;;;;;;;;;;;;;;-1.49;60.31;101123.06;4458965;32;35058;-84
2024/01/21 04:32:05;;;;;;;;;;;;;;;-1.24;59.88;101125.34;4456971;32;34227;-82
2024/01/21 04:34:35;;;;;;;;;;;;;;;-1.09;59.45;101130.44;4452426;32;33227;-81
2024/01/21 04:37:08;;;;;;;;;;;;;;;-1.16;59.29;101128.31;4459420;32;34608;-82
2024/01/21 04:39:42;;;;;;;;;;;;;;;-0.88;58.83;101129.09;4448852;32;33509;-84
2024/01/21 04:42:11;;;;;;;;;;;;;;;-0.78;58.82;101127.94;4462594;32;33692;-82
2024/01/21 04:44:40;;;;;;;;;;;;;;;-0.81;58.69;101120.12;4463123;32;33878;-82
2024/01/21 04:47:09;;;;;;;;;;;;;;;-0.71;58.53;101114.75;4461915;32;33503;-82
2024/01/21 04:49:39;;;;;;;;;;;;;;;-0.55;58.26;101125.78;4451124;32;34435;-84
2024/01/21 04:52:11;;;;;;;;;;;;;;;-0.51;58.05;101127.69;4449928;32;33610;-84
2024/01/21 04:54:40;;;;;;;;;;;;;;;-0.41;57.92;101129.06;4460935;32;33123;-82
2024/01/21 04:57:14;;;;;;;;;;;;;;;-0.58;58.25;101135.81;4448291;32;34019;-83
2024/01/21 05:02:16;;;;;;;;;;;;;;;-0.36;57.88;101135.28;4455930;32;33621;-83
2024/01/21 05:04:45;;;;;;;;;;;;;;;-0.51;57.97;101136.25;4457810;32;32634;-84
2024/01/21 05:07:14;;;;;;;;;;;;;;;-0.15;56.95;101135.56;4461791;32;34194;-82
2024/01/21 05:09:53;;;;;;;;;;;;;;;-0.24;57.18;101134.31;4436704;32;35929;-81
2024/01/21 05:12:23;;;;;;;;;;;;;;;-0.42;57.54;101133.31;4452440;32;34228;-84
2024/01/21 05:14:59;;;;;;;;;;;;;;;-0.43;57.55;101129.88;4453692;32;32772;-82
2024/01/21 05:17:27;;;;;;;;;;;;;;;-0.91;58.86;101144.22;4434882;32;32183;-83
2024/01/21 05:20:00;;;;;;;;;;;;;;;-0.80;59.08;101156.66;4465707;32;35035;-81
2024/01/21 05:22:35;;;;;;;;;;;;;;;-0.68;58.49;101154.81;4462994;32;34466;-84
2024/01/21 05:25:04;;;;;;;;;;;;;;;-0.44;57.97;101165.47;4454741;32;33257;-83
2024/01/21 05:27:35;;;;;;;;;;;;;;;-0.74;58.39;101155.34;4463022;32;34790;-82
2024/01/21 05:30:05;;;;;;;;;;;;;;;-0.68;58.17;101159.91;4473608;32;33253;-84
2024/01/21 05:32:34;;;;;;;;;;;;;;;-0.55;57.33;101164.91;4460465;32;33582;-82
2024/01/21 05:35:03;;;;;;;;;;;;;;;-0.43;56.88;101177.44;4456016;32;33267;-85
2024/01/21 05:37:33;;;;;;;;;;;;;;;-0.43;57.17;101182.56;4449291;32;34671;-82
2024/01/21 05:40:03;;;;;;;;;;;;;;;-0.29;56.70;101180.72;4450840;32;34267;-82
2024/01/21 05:42:34;;;;;;;;;;;;;;;-0.38;56.89;101181.12;4466601;32;33591;-83
2024/01/21 05:45:04;;;;;;;;;;;;;;;-0.45;56.90;101179.91;4478946;32;33278;-81
2024/01/21 05:47:33;;;;;;;;;;;;;;;-0.49;57.06;101188.16;4457026;32;34208;-83
2024/01/21 05:50:07;;;;;;;;;;;;;;;-0.59;57.31;101190.13;4452585;32;33801;-82
2024/01/21 05:52:45;;;;;;;;;;;;;;;-0.74;57.76;101188.47;4455300;32;34827;-83
2024/01/21 05:55:14;;;;;;;;;;;;;;;-0.54;57.42;101188.72;4463434;32;34336;-84
2024/01/21 05:57:47;;;;;;;;;;;;;;;-0.69;57.89;101187.06;4454911;32;33933;-83
2024/01/21 06:00:17;;;;;;;;;;;;;;;-0.43;57.11;101197.84;4455233;32;34793;-83
2024/01/21 06:02:52;;;;;;;;;;;;;;;-0.74;57.55;101195.25;4462125;32;34198;-84
2024/01/21 06:05:28;;;;;;;;;;;;;;;-0.40;56.74;101197.13;4468135;32;33650;-81
2024/01/21 06:07:56;;;;;;;;;;;;;;;-0.59;57.04;101198.66;4456619;32;34366;-82
2024/01/21 06:10:27;;;;;;;;;;;;;;;-0.71;57.35;101197.97;4464730;32;33796;-81
2024/01/21 06:12:57;;;;;;;;;;;;;;;-0.82;57.94;101199.03;4463725;32;34301;-81
2024/01/21 06:15:31;;;;;;;;;;;;;;;-0.87;58.14;101203.84;4463424;32;34871;-82
2024/01/21 06:18:00;;;;;;;;;;;;;;;-1.00;58.31;101214.13;4468013;32;34527;-82
2024/01/21 06:20:29;;;;;;;;;;;;;;;-0.96;58.34;101216.09;4449203;32;34613;-82
2024/01/21 06:22:58;;;;;;;;;;;;;;;-1.08;59.03;101217.13;4448183;32;33319;-82
2024/01/21 06:28:04;;;;;;;;;;;;;;;-0.88;58.31;101215.72;4470285;32;34709;-84
2024/01/21 06:30:35;;;;;;;;;;;;;;;-0.84;58.37;101214.25;4462072;32;35021;-82
2024/01/21 06:33:04;;;;;;;;;;;;;;;-0.75;57.84;101218.97;4463556;32;34726;-81
2024/01/21 06:35:33;;;;;;;;;;;;;;;-0.90;58.40;101227.47;4457646;32;33431;-82
2024/01/21 06:38:02;;;;;;;;;;;;;;;-1.26;59.55;101223.66;4438641;32;32573;-82
2024/01/21 06:40:32;;;;;;;;;;;;;;;-1.29;59.72;101223.50;4452192;32;33588;-82
2024/01/21 06:43:04;;;;;;;;;;;;;;;-1.41;60.02;101225.31;4472706;32;33778;-83
2024/01/21 06:45:37;;;;;;;;;;;;;;;-1.26;59.88;101226.22;4461846;32;33052;-83
2024/01/21 06:48:07;;;;;;;;;;;;;;;-0.99;59.36;101224.44;4452748;32;34061;-82
2024/01/21 06:50:41;;;;;;;;;;;;;;;-0.97;59.18;101227.91;4466282;32;34039;-84
2024/01/21 06:53:09;;;;;;;;;;;;;;;-0.88;59.16;101228.44;4467287;32;34686;-82
2024/01/21 06:55:41;;;;;;;;;;;;;;;-0.88;59.28;101236.09;4476635;32;33399;-82
2024/01/21 06:58:11;;;;;;;;;;;;;;;-0.97;59.88;101234.69;4461586;32;34683;-81
2024/01/21 07:00:41;;;;;;;;;;;;;;;-0.66;59.31;101229.69;4451010;32;34038;-82
2024/01/21 07:03:11;;;;;;;;;;;;;;;-0.63;59.25;101237.50;4451939;32;33394;-83
2024/01/21 07:05:40;;;;;;;;;;;;;;;-0.55;58.57;101236.28;4447272;32;34085;-83
2024/01/21 07:08:12;;;;;;;;;;;;;;;-0.46;58.02;101224.06;4448489;32;33913;-84
2024/01/21 07:10:41;;;;;;;;;;;;;;;-0.36;57.85;101239.84;4461674;32;33719;-81
2024/01/21 07:13:14;;;;;;;;;;;;;;;-0.33;57.73;101225.59;4464064;32;33859;-82
2024/01/21 07:15:55;;;;;;;;;;;;;;;-0.41;57.69;101226.84;4458932;32;33380;-81
2024/01/21 07:18:26;;;;;;;;;;;;;;;-0.36;57.77;101234.72;4458081;32;33571;-82
2024/01/21 07:20:58;;;;;;;;;;;;;;;-0.35;57.78;101237.37;4446862;32;32399;-81
2024/01/21 07:23:31;;;;;;;;;;;;;;;-0.32;57.81;101242.66;4453974;32;33818;-81
2024/01/21 07:25:59;;;;;;;;;;;;;;;-0.18;57.35;101250.19;4455382;32;32655;-82
2024/01/21 07:28:35;;;;;;;;;;;;;;;-0.25;57.55;101251.53;4475754;32;33686;-82
2024/01/21 07:31:03;;;;;;;;;;;;;;;-0.37;57.46;101248.28;4470022;32;33830;-83
2024/01/21 07:33:34;;;;;;;;;;;;;;;-0.17;57.27;101250.28;4449224;32;33750;-83
2024/01/21 07:36:03;;;;;;;;;;;;;;;-0.14;57.30;101247.91;4447277;32;33812;-82
2024/01/21 07:38:38;;;;;;;;;;;;;;;0.01;56.85;101249.53;4463565;32;33589;-82
2024/01/21 07:41:07;;;;;;;;;;;;;;;-0.17;57.17;101251.94;4451856;32;34140;-83
2024/01/21 07:43:37;;;;;;;;;;;;;;;0.06;56.86;101259.19;4460353;32;34495;-82
2024/01/21 07:46:06;;;;;;;;;;;;;;;0.19;56.22;101259.06;4449281;32;31853;-82
2024/01/21 07:48:36;;;;;;;;;;;;;;;0.27;55.75;101254.37;4463703;32;33425;-82
2024/01/21 07:51:06;;;;;;;;;;;;;;;0.19;55.71;101260.72;4456881;32;33267;-83
2024/01/21 07:53:37;;;;;;;;;;;;;;;0.09;55.82;101261.91;4456626;32;33694;-82
2024/01/21 07:56:06;;;;;;;;;;;;;;;0.55;55.10;101268.56;4451363;32;36214;-81
2024/01/21 07:58:41;;;;;;;;;;;;;;;0.48;55.20;101257.16;4455330;32;34230;-83
2024/01/21 08:01:11;;;;;;;;;;;;;;;0.66;54.82;101267.47;4460748;32;34363;-83
2024/01/21 08:03:43;;;;;;;;;;;;;;;0.67;54.76;101270.91;4451167;32;33726;-82
2024/01/21 08:06:12;;;;;;;;;;;;;;;0.91;53.92;101258.50;4453855;32;33450;-84
2024/01/21 08:08:42;;;;;;;;;;;;;;;0.87;53.88;101261.69;4450108;32;34923;-82
2024/01/21 08:11:10;;;;;;;;;;;;;;;0.76;54.35;101261.16;4455070;32;34237;-85
2024/01/21 08:13:39;;;;;;;;;;;;;;;1.02;53.62;101268.47;4459231;32;32557;-82
2024/01/21 08:16:13;;;;;;;;;;;;;;;1.10;53.21;101271.41;4451518;32;32373;-81
2024/01/21 08:18:46;;;;;;;;;;;;;;;1.09;53.16;101269.69;4452985;32;33509;-82
2024/01/21 08:21:15;;;;;;;;;;;;;;;1.13;53.16;101274.13;4455170;32;34270;-84
2024/01/21 08:23:48;;;;;;;;;;;;;;;1.17;53.21;101273.47;4463184;32;33558;-82
2024/01/21 08:26:23;;;;;;;;;;;;;;;1.35;52.27;101273.50;4453034;32;33528;-81
2024/01/21 08:28:56;;;;;;;;;;;;;;;1.18;52.86;101279.47;4452264;32;33037;-82
2024/01/21 08:31:29;;;;;;;;;;;;;;;1.41;52.33;101280.63;4455490;32;34761;-84
2024/01/21 08:33:59;;;;;;;;;;;;;;;1.47;52.88;101291.13;4449897;32;33676;-82
2024/01/21 08:36:28;;;;;;;;;;;;;;;1.49;52.20;101292.09;4459273;32;32839;-82
2024/01/21 08:38:57;;;;;;;;;;;;;;;1.69;52.13;101300.75;4452473;32;34823;-82
2024/01/21 08:41:26;;;;;;;;;;;;;;;1.92;51.19;101304.41;4454310;32;34181;-82
2024/01/21 08:44:03;;;;;;;;;;;;;;;1.90;51.79;101300.91;4448550;32;33849;-84
2024/01/21 08:46:36;;;;;;;;;;;;;;;1.66;52.21;101301.47;4458250;32;33042;-83
2024/01/21 08:49:05;;;;;;;;;;;;;;;2.03;51.71;101305.81;4456451;32;32678;-83
2024/01/21 08:51:37;;;;;;;;;;;;;;;1.93;51.74;101308.72;4456596;32;34628;-82
2024/01/21 08:54:06;;;;;;;;;;;;;;;1.84;51.72;101306.62;4453145;32;33929;-83
2024/01/21 08:56:36;;;;;;;;;;;;;;;1.83;51.81;101320.19;4458022;32;32944;-84
2024/01/21 08:59:05;;;;;;;;;;;;;;;1.91;51.72;101323.16;4454103;32;33320;-85
2024/01/21 09:01:41;;;;;;;;;;;;;;;1.96;51.82;101331.91;4454526;32;34549;-83
2024/01/21 09:04:15;;;;;;;;;;;;;;;2.17;51.03;101323.50;4456447;32;34220;-82
2024/01/21 09:06:45;;;;;;;;;;;;;;;2.09;51.16;101328.25;4452585;32;32912;-83
2024/01/21 09:09:14;;;;;;;;;;;;;;;2.22;51.34;101328.00;4455746;32;34244;-83
2024/01/21 09:11:47;;;;;;;;;;;;;;;2.16;52.30;101337.09;4458901;32;32525;-85
2024/01/21 09:14:17;;;;;;;;;;;;;;;2.04;53.24;101338.28;4453627;32;33467;-84
2024/01/21 09:16:50;;;;;;;;;;;;;;;2.23;52.69;101339.16;4452575;32;33820;-82
2024/01/21 09:19:22;;;;;;;;;;;;;;;2.10;53.00;101340.22;4455371;32;33393;-85
2024/01/21 09:21:53;;;;;;;;;;;;;;;2.25;52.65;101340.97;4453986;32;34286;-83
2024/01/21 09:24:28;;;;;;;;;;;;;;;2.27;52.39;101344.50;4453310;32;34986;-83
2024/01/21 09:26:56;;;;;;;;;;;;;;;2.61;51.01;101332.34;4454055;32;32840;-83
2024/01/21 09:29:27;;;;;;;;;;;;;;;2.66;51.06;101334.31;4449287;32;33668;-82
2024/01/21 09:31:56;;;;;;;;;;;;;;;2.50;51.66;101332.72;4459095;32;34761;-83
2024/01/21 09:34:31;;;;;;;;;;;;;;;2.22;52.45;101332.25;4453059;32;33606;-82
2024/01/21 09:37:00;;;;;;;;;;;;;;;2.17;52.97;101336.28;4450620;32;32836;-82
2024/01/21 09:39:32;;;;;;;;;;;;;;;2.41;52.82;101342.56;4457579;32;33212;-83
2024/01/21 09:42:01;;;;;;;;;;;;;;;2.23;53.05;101341.72;4456193;32;34777;-83
2024/01/21 09:44:30;;;;;;;;;;;;;;;1.47;54.38;101339.72;4453520;32;34134;-84
2024/01/21 09:47:02;;;;;;;;;;;;;;;2.06;53.05;101341.78;4448069;32;31354;-84
2024/01/21 09:49:33;;;;;;;;;;;;;;;2.33;52.71;101343.88;4456363;32;34570;-86
2024/01/21 09:52:02;;;;;;;;;;;;;;;2.83;51.63;101335.09;4463960;32;33597;-87
2024/01/21 09:54:32;;;;;;;;;;;;;;;2.71;52.21;101343.09;4459457;32;34178;-85
2024/01/21 09:57:01;;;;;;;;;;;;;;;2.52;52.52;101343.94;4465351;32;32948;-85
2024/01/21 09:59:30;;;;;;;;;;;;;;;2.01;53.00;101353.50;4459271;32;33222;-85
2024/01/21 10:01:59;;;;;;;;;;;;;;;2.58;52.26;101352.69;4460381;32;33900;-83
2024/01/21 10:04:28;;;;;;;;;;;;;;;2.82;51.71;101341.00;4462938;32;33732;-83
2024/01/21 10:06:58;;;;;;;;;;;;;;;3.07;51.48;101332.72;4450413;32;33997;-84
2024/01/21 10:09:27;;;;;;;;;;;;;;;2.61;52.43;101340.94;4456320;32;34958;-85
2024/01/21 10:11:56;;;;;;;;;;;;;;;2.32;51.80;101340.47;4449832;32;33744;-84
2024/01/21 10:14:26;;;;;;;;;;;;;;;2.87;51.41;101344.63;4457036;32;33975;-83
2024/01/21 10:19:30;;;;;;;;;;;;;;;2.91;51.21;101340.53;4463878;32;33683;-84
2024/01/21 10:22:05;;;;;;;;;;;;;;;2.16;52.91;101335.41;4454932;32;33989;-83
2024/01/21 10:24:35;;;;;;;;;;;;;;;2.73;51.30;101345.69;4452892;32;34569;-86
2024/01/21 10:27:05;;;;;;;;;;;;;;;3.04;50.94;101341.94;4450882;32;34001;-85
2024/01/21 10:29:35;;;;;;;;;;;;;;;3.04;50.59;101339.38;4459508;32;34776;-82
2024/01/21 10:32:07;;;;;;;;;;;;;;;3.04;51.18;101350.50;4461577;32;34984;-83
2024/01/21 10:34:36;;;;;;;;;;;;;;;3.04;51.21;101347.06;4439791;32;32819;-86
2024/01/21 10:37:05;;;;;;;;;;;;;;;2.98;50.69;101343.44;4458126;32;33062;-83
2024/01/21 10:39:36;;;;;;;;;;;;;;;2.90;50.84;101341.34;4450083;32;33993;-81
2024/01/21 10:42:09;;;;;;;;;;;;;;;2.92;51.28;101344.84;4465528;32;36719;-80
2024/01/21 10:44:38;;;;;;;;;;;;;;;2.50;51.72;101340.41;4457484;32;33214;-81
2024/01/21 10:47:10;;;;;;;;;;;;;;;2.30;51.98;101343.75;4451681;32;32806;-81
2024/01/21 10:49:39;;;;;;;;;;;;;;;2.66;51.71;101339.44;4454709;32;33579;-83
2024/01/21 10:52:10;;;;;;;;;;;;;;;2.93;51.13;101339.78;4456958;32;34027;-81
2024/01/21 10:54:40;;;;;;;;;;;;;;;3.25;50.21;101340.31;4443637;32;32729;-80
2024/01/21 10:57:13;;;;;;;;;;;;;;;3.35;49.78;101345.03;4447489;32;32627;-83
2024/01/21 10:59:42;;;;;;;;;;;;;;;3.36;50.04;101348.50;4458171;32;34769;-82
2024/01/21 11:02:14;;;;;;;;;;;;;;;2.78;51.79;101344.25;4454541;32;34604;-81
2024/01/21 11:04:43;;;;;;;;;;;;;;;3.15;51.06;101336.47;4466484;32;34160;-81
2024/01/21 11:07:14;;;;;;;;;;;;;;;3.44;50.21;101338.53;4458644;32;33236;-84
2024/01/21 11:09:47;;;;;;;;;;;;;;;3.50;50.10;101337.09;4468454;32;34128;-82
2024/01/21 11:12:18;;;;;;;;;;;;;;;2.76;51.83;101343.31;4448223;32;33960;-80
2024/01/21 11:14:47;;;;;;;;;;;;;;;3.29;50.34;101344.78;4446516;32;34219;-83
2024/01/21 11:17:17;;;;;;;;;;;;;;;3.02;51.28;101347.03;4451536;32;34099;-84
2024/01/21 11:19:50;;;;;;;;;;;;;;;2.89;51.82;101343.03;4455649;32;33262;-82
2024/01/21 11:22:23;;;;;;;;;;;;;;;3.33;51.27;101344.06;4451608;32;35412;-81
2024/01/21 11:24:56;;;;;;;;;;;;;;;3.16;51.38;101339.91;4463915;32;34497;-84
2024/01/21 11:27:29;;;;;;;;;;;;;;;3.40;51.02;101330.69;4452810;32;33377;-80
2024/01/21 11:30:05;;;;;;;;;;;;;;;3.37;51.22;101337.41;4464084;32;34235;-83
2024/01/21 11:32:33;;;;;;;;;;;;;;;3.23;51.62;101333.38;4458553;32;33831;-81
2024/01/21 11:35:06;;;;;;;;;;;;;;;3.55;50.57;101333.06;4461403;32;33830;-80
2024/01/21 11:37:34;;;;;;;;;;;;;;;3.48;50.26;101327.56;4461575;32;33033;-80
2024/01/21 11:40:09;;;;;;;;;;;;;;;3.32;50.17;101332.06;4465567;32;34227;-81
2024/01/21 11:42:38;;;;;;;;;;;;;;;3.54;49.55;101328.72;4467035;32;34993;-84
2024/01/21 11:45:07;;;;;;;;;;;;;;;3.64;49.44;101329.97;4460577;32;34214;-82
2024/01/21 11:47:36;;;;;;;;;;;;;;;3.26;49.82;101330.94;4461143;32;32788;-84
2024/01/21 11:50:09;;;;;;;;;;;;;;;3.44;49.67;101324.03;4461499;32;34509;-82
2024/01/21 11:52:37;;;;;;;;;;;;;;;3.69;48.97;101336.16;4465446;32;34539;-81
2024/01/21 11:55:18;;;;;;;;;;;;;;;2.41;52.36;101334.00;4460769;32;33901;-81
2024/01/21 11:57:50;;;;;;;;;;;;;;;2.93;51.90;101334.66;4461102;32;33940;-82
2024/01/21 12:00:19;;;;;;;;;;;;;;;3.57;50.20;101331.41;4462104;32;33789;-84
2024/01/21 12:02:48;;;;;;;;;;;;;;;2.52;52.07;101326.00;4462416;32;34492;-80
2024/01/21 12:05:18;;;;;;;;;;;;;;;3.32;50.35;101319.25;4467071;32;34118;-81
2024/01/21 12:07:47;;;;;;;;;;;;;;;3.24;50.76;101319.72;4464468;32;32926;-80
2024/01/21 12:10:24;;;;;;;;;;;;;;;3.63;49.63;101311.13;4462293;32;33924;-83
2024/01/21 12:12:53;;;;;;;;;;;;;;;2.86;51.06;101317.25;4462275;32;34520;-82
2024/01/21 12:15:24;;;;;;;;;;;;;;;3.52;49.81;101311.50;4465006;32;33205;-81
2024/01/21 12:17:55;;;;;;;;;;;;;;;3.68;49.84;101313.03;4467133;32;33242;-82
2024/01/21 12:20:24;;;;;;;;;;;;;;;3.39;50.21;101321.25;4463065;32;33703;-81
2024/01/21 12:23:01;;;;;;;;;;;;;;;2.98;51.22;101317.78;4464483;32;34224;-82
2024/01/21 12:25:31;;;;;;;;;;;;;;;3.08;50.81;101319.06;4462893;32;34228;-81
2024/01/21 12:28:00;;;;;;;;;;;;;;;2.69;51.84;101316.50;4468957;32;32813;-82
2024/01/21 12:30:29;;;;;;;;;;;;;;;3.30;50.41;101320.88;4464682;32;33988;-81
2024/01/21 12:32:58;;;;;;;;;;;;;;;3.58;49.92;101317.78;4466357;32;33991;-81
2024/01/21 12:35:28;;;;;;;;;;;;;;;3.82;49.07;101315.34;4466393;32;33556;-81
2024/01/21 12:37:59;;;;;;;;;;;;;;;3.53;50.18;101306.44;4464533;32;34007;-82
2024/01/21 12:40:32;;;;;;;;;;;;;;;3.98;49.15;101318.50;4468623;32;33480;-82
2024/01/21 12:43:03;;;;;;;;;;;;;;;4.01;48.91;101324.66;4465824;32;33664;-83
2024/01/21 12:45:32;;;;;;;;;;;;;;;3.31;50.13;101326.88;4449448;32;34188;-84
2024/01/21 12:48:01;;;;;;;;;;;;;;;3.78;48.73;101315.16;4448802;32;33766;-81
2024/01/21 12:50:31;;;;;;;;;;;;;;;3.36;50.13;101316.00;4453032;32;35029;-83
2024/01/21 12:53:02;;;;;;;;;;;;;;;3.55;49.99;101311.63;4448527;32;34672;-82
2024/01/21 12:55:35;;;;;;;;;;;;;;;3.88;49.21;101311.25;4448339;32;34066;-83
2024/01/21 12:58:12;;;;;;;;;;;;;;;3.03;51.00;101307.75;4452252;32;32823;-82
2024/01/21 13:00:40;;;;;;;;;;;;;;;3.39;50.02;101312.69;4465343;32;33273;-80
2024/01/21 13:03:11;;;;;;;;;;;;;;;3.46;50.11;101304.44;4468491;32;34379;-83
2024/01/21 13:05:42;;;;;;;;;;;;;;;3.54;49.22;101304.75;4463857;32;34252;-81
2024/01/21 13:08:14;;;;;;;;;;;;;;;3.91;48.39;101311.37;4468502;32;32723;-81